sensor_id;sensor_type;location;lat;lon;timestamp;P1;durP1;ratioP1;P2;durP2;ratioP2
17147;SDS011;8689;47.364;8.796;2023-06-14T00:03:19;4.43;;;3.67;;
17147;SDS011;8689;47.364;8.796;2023-06-14T00:06:37;7.80;;;4.20;;
17147;SDS011;8689;47.364;8.796;2023-06-14T00:09:26;8.43;;;4.50;;
17147;SDS011;8689;47.364;8.796;2023-06-14T00:15:47;4.73;;;4.23;;
17147;SDS011;8689;47.364;8.796;2023-06-14T00:22:12;4.83;;;4.40;;
17147;SDS011;8689;47.364;8.796;2023-06-14T00:25:00;5.50;;;4.33;;
17147;SDS011;8689;47.364;8.796;2023-06-14T00:28:12;5.70;;;4.47;;
17147;SDS011;8689;47.364;8.796;2023-06-14T00:31:27;7.30;;;4.10;;
17147;SDS011;8689;47.364;8.796;2023-06-14T00:37:50;5.00;;;3.80;;
17147;SDS011;8689;47.364;8.796;2023-06-14T00:40:23;6.50;;;4.90;;
17147;SDS011;8689;47.364;8.796;2023-06-14T00:43:00;4.63;;;4.20;;
17147;SDS011;8689;47.364;8.796;2023-06-14T00:46:19;8.40;;;4.90;;
17147;SDS011;8689;47.364;8.796;2023-06-14T00:49:16;8.37;;;4.97;;
17147;SDS011;8689;47.364;8.796;2023-06-14T00:52:25;4.53;;;4.10;;
17147;SDS011;8689;47.364;8.796;2023-06-14T00:55:46;5.80;;;4.20;;
17147;SDS011;8689;47.364;8.796;2023-06-14T00:58:35;7.17;;;3.90;;
17147;SDS011;8689;47.364;8.796;2023-06-14T01:01:10;6.03;;;4.50;;
17147;SDS011;8689;47.364;8.796;2023-06-14T01:04:08;6.47;;;4.97;;
17147;SDS011;8689;47.364;8.796;2023-06-14T01:06:53;11.47;;;4.47;;
17147;SDS011;8689;47.364;8.796;2023-06-14T01:09:48;5.73;;;3.80;;
17147;SDS011;8689;47.364;8.796;2023-06-14T01:12:44;7.00;;;4.17;;
17147;SDS011;8689;47.364;8.796;2023-06-14T01:16:10;6.90;;;4.70;;
17147;SDS011;8689;47.364;8.796;2023-06-14T01:18:50;4.40;;;3.93;;
17147;SDS011;8689;47.364;8.796;2023-06-14T01:21:25;5.40;;;4.67;;
17147;SDS011;8689;47.364;8.796;2023-06-14T01:24:58;4.47;;;3.90;;
17147;SDS011;8689;47.364;8.796;2023-06-14T01:27:49;10.03;;;3.87;;
17147;SDS011;8689;47.364;8.796;2023-06-14T01:30:37;8.90;;;4.23;;
17147;SDS011;8689;47.364;8.796;2023-06-14T01:33:22;7.17;;;4.07;;
17147;SDS011;8689;47.364;8.796;2023-06-14T01:36:07;9.07;;;4.00;;
17147;SDS011;8689;47.364;8.796;2023-06-14T01:45:05;4.73;;;4.13;;
17147;SDS011;8689;47.364;8.796;2023-06-14T01:48:04;6.40;;;4.27;;
17147;SDS011;8689;47.364;8.796;2023-06-14T01:51:18;6.10;;;4.00;;
17147;SDS011;8689;47.364;8.796;2023-06-14T01:54:03;6.37;;;4.23;;
17147;SDS011;8689;47.364;8.796;2023-06-14T01:56:35;5.20;;;3.93;;
17147;SDS011;8689;47.364;8.796;2023-06-14T01:59:10;7.03;;;4.80;;
17147;SDS011;8689;47.364;8.796;2023-06-14T02:01:41;4.50;;;4.10;;
17147;SDS011;8689;47.364;8.796;2023-06-14T02:04:14;6.13;;;4.90;;
17147;SDS011;8689;47.364;8.796;2023-06-14T02:06:46;5.33;;;4.40;;
17147;SDS011;8689;47.364;8.796;2023-06-14T02:09:15;8.87;;;4.30;;
17147;SDS011;8689;47.364;8.796;2023-06-14T02:11:58;10.70;;;6.03;;
17147;SDS011;8689;47.364;8.796;2023-06-14T02:15:12;6.00;;;5.10;;
17147;SDS011;8689;47.364;8.796;2023-06-14T02:17:52;5.20;;;4.57;;
17147;SDS011;8689;47.364;8.796;2023-06-14T02:20:24;4.83;;;4.33;;
17147;SDS011;8689;47.364;8.796;2023-06-14T02:22:52;6.50;;;4.47;;
17147;SDS011;8689;47.364;8.796;2023-06-14T02:25:27;5.13;;;4.63;;
17147;SDS011;8689;47.364;8.796;2023-06-14T02:27:56;8.10;;;4.43;;
17147;SDS011;8689;47.364;8.796;2023-06-14T02:30:26;7.40;;;4.93;;
17147;SDS011;8689;47.364;8.796;2023-06-14T02:32:53;5.73;;;4.73;;
17147;SDS011;8689;47.364;8.796;2023-06-14T02:35:21;6.80;;;4.73;;
17147;SDS011;8689;47.364;8.796;2023-06-14T02:37:51;5.23;;;4.73;;
17147;SDS011;8689;47.364;8.796;2023-06-14T02:40:20;6.40;;;4.70;;
17147;SDS011;8689;47.364;8.796;2023-06-14T02:42:48;4.90;;;4.40;;
17147;SDS011;8689;47.364;8.796;2023-06-14T02:45:17;5.23;;;4.73;;
17147;SDS011;8689;47.364;8.796;2023-06-14T02:47:48;6.77;;;5.00;;
17147;SDS011;8689;47.364;8.796;2023-06-14T02:50:36;5.03;;;4.43;;
17147;SDS011;8689;47.364;8.796;2023-06-14T02:53:04;5.47;;;4.97;;
17147;SDS011;8689;47.364;8.796;2023-06-14T02:55:33;5.30;;;4.63;;
17147;SDS011;8689;47.364;8.796;2023-06-14T02:58:04;5.50;;;4.90;;
17147;SDS011;8689;47.364;8.796;2023-06-14T03:00:35;5.20;;;4.70;;
17147;SDS011;8689;47.364;8.796;2023-06-14T03:03:05;5.83;;;5.20;;
17147;SDS011;8689;47.364;8.796;2023-06-14T03:05:47;6.70;;;4.93;;
17147;SDS011;8689;47.364;8.796;2023-06-14T03:08:31;7.23;;;5.10;;
17147;SDS011;8689;47.364;8.796;2023-06-14T03:11:03;8.93;;;4.83;;
17147;SDS011;8689;47.364;8.796;2023-06-14T03:13:33;5.63;;;5.03;;
17147;SDS011;8689;47.364;8.796;2023-06-14T03:16:02;8.33;;;5.53;;
17147;SDS011;8689;47.364;8.796;2023-06-14T03:18:34;6.43;;;5.47;;
17147;SDS011;8689;47.364;8.796;2023-06-14T03:21:02;6.83;;;5.07;;
17147;SDS011;8689;47.364;8.796;2023-06-14T03:23:30;6.30;;;5.20;;
17147;SDS011;8689;47.364;8.796;2023-06-14T03:25:58;6.03;;;4.63;;
17147;SDS011;8689;47.364;8.796;2023-06-14T03:28:25;5.43;;;4.67;;
17147;SDS011;8689;47.364;8.796;2023-06-14T03:30:52;5.33;;;4.87;;
17147;SDS011;8689;47.364;8.796;2023-06-14T03:33:20;5.03;;;4.53;;
17147;SDS011;8689;47.364;8.796;2023-06-14T03:35:49;4.87;;;4.43;;
17147;SDS011;8689;47.364;8.796;2023-06-14T03:38:18;7.50;;;5.00;;
17147;SDS011;8689;47.364;8.796;2023-06-14T03:40:47;9.13;;;5.03;;
17147;SDS011;8689;47.364;8.796;2023-06-14T03:43:15;6.50;;;5.27;;
17147;SDS011;8689;47.364;8.796;2023-06-14T03:45:43;7.17;;;5.00;;
17147;SDS011;8689;47.364;8.796;2023-06-14T03:48:11;7.50;;;5.33;;
17147;SDS011;8689;47.364;8.796;2023-06-14T03:50:38;6.67;;;5.23;;
17147;SDS011;8689;47.364;8.796;2023-06-14T03:53:09;7.00;;;5.00;;
17147;SDS011;8689;47.364;8.796;2023-06-14T03:55:36;6.20;;;5.30;;
17147;SDS011;8689;47.364;8.796;2023-06-14T03:58:04;5.90;;;4.60;;
17147;SDS011;8689;47.364;8.796;2023-06-14T04:00:32;6.30;;;5.43;;
17147;SDS011;8689;47.364;8.796;2023-06-14T04:03:02;5.40;;;4.50;;
17147;SDS011;8689;47.364;8.796;2023-06-14T04:05:31;5.23;;;4.73;;
17147;SDS011;8689;47.364;8.796;2023-06-14T04:08:01;7.07;;;5.30;;
17147;SDS011;8689;47.364;8.796;2023-06-14T04:10:31;6.23;;;4.97;;
17147;SDS011;8689;47.364;8.796;2023-06-14T04:12:59;7.57;;;5.30;;
17147;SDS011;8689;47.364;8.796;2023-06-14T04:15:29;8.33;;;4.53;;
17147;SDS011;8689;47.364;8.796;2023-06-14T04:17:59;6.40;;;4.07;;
17147;SDS011;8689;47.364;8.796;2023-06-14T04:20:36;5.13;;;4.63;;
17147;SDS011;8689;47.364;8.796;2023-06-14T04:23:15;6.40;;;5.33;;
17147;SDS011;8689;47.364;8.796;2023-06-14T04:25:47;7.73;;;4.63;;
17147;SDS011;8689;47.364;8.796;2023-06-14T04:28:14;5.40;;;4.90;;
17147;SDS011;8689;47.364;8.796;2023-06-14T04:30:42;4.80;;;4.40;;
17147;SDS011;8689;47.364;8.796;2023-06-14T04:33:09;5.50;;;4.90;;
17147;SDS011;8689;47.364;8.796;2023-06-14T04:35:39;8.00;;;5.70;;
17147;SDS011;8689;47.364;8.796;2023-06-14T04:38:16;9.00;;;5.37;;
17147;SDS011;8689;47.364;8.796;2023-06-14T04:41:00;8.67;;;5.07;;
17147;SDS011;8689;47.364;8.796;2023-06-14T04:43:57;5.33;;;4.83;;
17147;SDS011;8689;47.364;8.796;2023-06-14T04:46:26;7.23;;;4.63;;
17147;SDS011;8689;47.364;8.796;2023-06-14T04:48:55;6.17;;;5.33;;
17147;SDS011;8689;47.364;8.796;2023-06-14T04:51:23;5.03;;;4.30;;
17147;SDS011;8689;47.364;8.796;2023-06-14T04:53:55;5.80;;;5.00;;
17147;SDS011;8689;47.364;8.796;2023-06-14T04:56:25;6.60;;;5.63;;
17147;SDS011;8689;47.364;8.796;2023-06-14T04:58:52;5.87;;;4.53;;
17147;SDS011;8689;47.364;8.796;2023-06-14T05:01:21;5.60;;;4.93;;
17147;SDS011;8689;47.364;8.796;2023-06-14T05:07:21;5.00;;;4.60;;
17147;SDS011;8689;47.364;8.796;2023-06-14T05:12:56;10.27;;;5.40;;
17147;SDS011;8689;47.364;8.796;2023-06-14T05:15:23;6.80;;;5.77;;
17147;SDS011;8689;47.364;8.796;2023-06-14T05:17:54;14.07;;;6.87;;
17147;SDS011;8689;47.364;8.796;2023-06-14T05:20:21;8.27;;;5.17;;
17147;SDS011;8689;47.364;8.796;2023-06-14T05:22:49;5.33;;;4.53;;
17147;SDS011;8689;47.364;8.796;2023-06-14T05:25:18;5.83;;;4.70;;
17147;SDS011;8689;47.364;8.796;2023-06-14T05:27:46;6.43;;;4.90;;
17147;SDS011;8689;47.364;8.796;2023-06-14T05:30:26;7.93;;;5.30;;
17147;SDS011;8689;47.364;8.796;2023-06-14T05:32:55;12.37;;;4.70;;
17147;SDS011;8689;47.364;8.796;2023-06-14T05:35:23;6.83;;;4.70;;
17147;SDS011;8689;47.364;8.796;2023-06-14T05:37:52;7.47;;;4.37;;
17147;SDS011;8689;47.364;8.796;2023-06-14T05:40:28;4.93;;;4.43;;
17147;SDS011;8689;47.364;8.796;2023-06-14T05:43:00;4.53;;;4.13;;
17147;SDS011;8689;47.364;8.796;2023-06-14T05:45:30;10.60;;;4.43;;
17147;SDS011;8689;47.364;8.796;2023-06-14T05:47:57;4.87;;;4.40;;
17147;SDS011;8689;47.364;8.796;2023-06-14T05:50:25;6.03;;;4.03;;
17147;SDS011;8689;47.364;8.796;2023-06-14T05:52:53;5.60;;;4.13;;
17147;SDS011;8689;47.364;8.796;2023-06-14T05:55:23;4.67;;;4.07;;
17147;SDS011;8689;47.364;8.796;2023-06-14T05:57:53;5.37;;;4.10;;
17147;SDS011;8689;47.364;8.796;2023-06-14T06:00:20;5.40;;;4.23;;
17147;SDS011;8689;47.364;8.796;2023-06-14T06:02:49;5.50;;;4.33;;
17147;SDS011;8689;47.364;8.796;2023-06-14T06:05:16;8.77;;;3.83;;
17147;SDS011;8689;47.364;8.796;2023-06-14T06:07:44;6.53;;;3.47;;
17147;SDS011;8689;47.364;8.796;2023-06-14T06:10:11;7.20;;;3.53;;
17147;SDS011;8689;47.364;8.796;2023-06-14T06:12:38;4.37;;;3.90;;
17147;SDS011;8689;47.364;8.796;2023-06-14T06:15:08;4.30;;;3.20;;
17147;SDS011;8689;47.364;8.796;2023-06-14T06:17:37;4.53;;;4.13;;
17147;SDS011;8689;47.364;8.796;2023-06-14T06:20:10;5.07;;;3.93;;
17147;SDS011;8689;47.364;8.796;2023-06-14T06:22:40;6.97;;;4.13;;
17147;SDS011;8689;47.364;8.796;2023-06-14T06:25:21;9.37;;;4.03;;
17147;SDS011;8689;47.364;8.796;2023-06-14T06:27:51;4.30;;;3.50;;
17147;SDS011;8689;47.364;8.796;2023-06-14T06:30:19;3.80;;;3.00;;
17147;SDS011;8689;47.364;8.796;2023-06-14T06:33:01;11.60;;;4.10;;
17147;SDS011;8689;47.364;8.796;2023-06-14T06:35:31;4.37;;;3.43;;
17147;SDS011;8689;47.364;8.796;2023-06-14T06:37:59;6.07;;;3.97;;
17147;SDS011;8689;47.364;8.796;2023-06-14T06:40:27;7.28;;;3.33;;
17147;SDS011;8689;47.364;8.796;2023-06-14T06:43:05;3.88;;;3.25;;
17147;SDS011;8689;47.364;8.796;2023-06-14T06:45:33;4.13;;;3.10;;
17147;SDS011;8689;47.364;8.796;2023-06-14T06:48:01;6.60;;;3.40;;
17147;SDS011;8689;47.364;8.796;2023-06-14T06:50:29;4.15;;;3.72;;
17147;SDS011;8689;47.364;8.796;2023-06-14T06:52:58;5.72;;;3.53;;
17147;SDS011;8689;47.364;8.796;2023-06-14T06:55:25;4.55;;;3.47;;
17147;SDS011;8689;47.364;8.796;2023-06-14T06:57:53;6.00;;;3.42;;
17147;SDS011;8689;47.364;8.796;2023-06-14T07:00:22;7.95;;;3.65;;
17147;SDS011;8689;47.364;8.796;2023-06-14T07:02:52;7.95;;;3.67;;
17147;SDS011;8689;47.364;8.796;2023-06-14T07:05:22;4.97;;;3.38;;
17147;SDS011;8689;47.364;8.796;2023-06-14T07:07:49;5.20;;;3.38;;
17147;SDS011;8689;47.364;8.796;2023-06-14T07:10:29;5.32;;;3.42;;
17147;SDS011;8689;47.364;8.796;2023-06-14T07:12:57;7.20;;;3.70;;
17147;SDS011;8689;47.364;8.796;2023-06-14T07:15:25;6.55;;;3.92;;
17147;SDS011;8689;47.364;8.796;2023-06-14T07:18:03;6.07;;;3.33;;
17147;SDS011;8689;47.364;8.796;2023-06-14T07:20:53;6.10;;;3.28;;
17147;SDS011;8689;47.364;8.796;2023-06-14T07:23:23;3.78;;;3.00;;
17147;SDS011;8689;47.364;8.796;2023-06-14T07:26:02;4.78;;;3.28;;
17147;SDS011;8689;47.364;8.796;2023-06-14T07:28:39;4.20;;;2.90;;
17147;SDS011;8689;47.364;8.796;2023-06-14T07:31:22;5.47;;;3.63;;
17147;SDS011;8689;47.364;8.796;2023-06-14T07:34:04;4.78;;;3.10;;
17147;SDS011;8689;47.364;8.796;2023-06-14T07:36:32;5.63;;;3.67;;
17147;SDS011;8689;47.364;8.796;2023-06-14T07:39:10;9.07;;;3.65;;
17147;SDS011;8689;47.364;8.796;2023-06-14T07:41:40;5.90;;;3.30;;
17147;SDS011;8689;47.364;8.796;2023-06-14T07:44:15;4.68;;;3.33;;
17147;SDS011;8689;47.364;8.796;2023-06-14T07:47:13;5.70;;;3.45;;
17147;SDS011;8689;47.364;8.796;2023-06-14T07:49:45;7.63;;;3.28;;
17147;SDS011;8689;47.364;8.796;2023-06-14T07:52:15;5.07;;;3.00;;
17147;SDS011;8689;47.364;8.796;2023-06-14T07:54:54;5.50;;;3.53;;
17147;SDS011;8689;47.364;8.796;2023-06-14T07:57:25;4.38;;;2.80;;
17147;SDS011;8689;47.364;8.796;2023-06-14T07:59:52;6.65;;;3.22;;
17147;SDS011;8689;47.364;8.796;2023-06-14T08:02:20;4.55;;;2.70;;
17147;SDS011;8689;47.364;8.796;2023-06-14T08:04:48;6.60;;;2.83;;
17147;SDS011;8689;47.364;8.796;2023-06-14T08:07:17;4.85;;;2.97;;
17147;SDS011;8689;47.364;8.796;2023-06-14T08:09:45;4.50;;;2.40;;
17147;SDS011;8689;47.364;8.796;2023-06-14T08:12:13;3.58;;;2.90;;
17147;SDS011;8689;47.364;8.796;2023-06-14T08:15:09;6.13;;;2.92;;
17147;SDS011;8689;47.364;8.796;2023-06-14T08:18:06;3.80;;;2.92;;
17147;SDS011;8689;47.364;8.796;2023-06-14T08:20:36;3.88;;;3.03;;
17147;SDS011;8689;47.364;8.796;2023-06-14T08:23:28;4.18;;;2.92;;
17147;SDS011;8689;47.364;8.796;2023-06-14T08:26:07;4.28;;;2.97;;
17147;SDS011;8689;47.364;8.796;2023-06-14T08:28:57;3.47;;;2.85;;
17147;SDS011;8689;47.364;8.796;2023-06-14T08:31:39;3.67;;;2.75;;
17147;SDS011;8689;47.364;8.796;2023-06-14T08:38:00;4.75;;;3.10;;
17147;SDS011;8689;47.364;8.796;2023-06-14T08:43:54;6.35;;;2.60;;
17147;SDS011;8689;47.364;8.796;2023-06-14T09:02:30;10.57;;;3.60;;
17147;SDS011;8689;47.364;8.796;2023-06-14T09:04:43;4.47;;;3.28;;
17147;SDS011;8689;47.364;8.796;2023-06-14T09:07:25;6.38;;;3.63;;
17147;SDS011;8689;47.364;8.796;2023-06-14T09:10:07;4.07;;;3.10;;
17147;SDS011;8689;47.364;8.796;2023-06-14T09:12:49;5.50;;;3.38;;
17147;SDS011;8689;47.364;8.796;2023-06-14T09:19:20;7.45;;;3.70;;
17147;SDS011;8689;47.364;8.796;2023-06-14T09:24:50;6.85;;;3.20;;
17147;SDS011;8689;47.364;8.796;2023-06-14T09:27:25;7.05;;;3.55;;
17147;SDS011;8689;47.364;8.796;2023-06-14T09:30:12;4.55;;;3.28;;
17147;SDS011;8689;47.364;8.796;2023-06-14T09:32:47;4.85;;;3.92;;
17147;SDS011;8689;47.364;8.796;2023-06-14T09:35:15;4.45;;;3.55;;
17147;SDS011;8689;47.364;8.796;2023-06-14T09:37:45;6.07;;;3.25;;
17147;SDS011;8689;47.364;8.796;2023-06-14T09:40:20;8.25;;;4.00;;
17147;SDS011;8689;47.364;8.796;2023-06-14T09:42:47;4.18;;;3.22;;
17147;SDS011;8689;47.364;8.796;2023-06-14T09:45:15;8.05;;;3.17;;
17147;SDS011;8689;47.364;8.796;2023-06-14T09:47:48;8.07;;;3.88;;
17147;SDS011;8689;47.364;8.796;2023-06-14T09:50:16;4.53;;;3.30;;
17147;SDS011;8689;47.364;8.796;2023-06-14T09:52:49;6.25;;;3.30;;
17147;SDS011;8689;47.364;8.796;2023-06-14T09:55:30;7.18;;;3.80;;
17147;SDS011;8689;47.364;8.796;2023-06-14T09:58:01;4.70;;;4.00;;
17147;SDS011;8689;47.364;8.796;2023-06-14T10:00:44;6.82;;;3.88;;
17147;SDS011;8689;47.364;8.796;2023-06-14T10:06:57;5.68;;;3.95;;
17147;SDS011;8689;47.364;8.796;2023-06-14T10:09:28;5.28;;;3.92;;
17147;SDS011;8689;47.364;8.796;2023-06-14T10:12:32;6.28;;;3.53;;
17147;SDS011;8689;47.364;8.796;2023-06-14T10:15:29;5.88;;;4.05;;
17147;SDS011;8689;47.364;8.796;2023-06-14T10:18:13;6.25;;;3.75;;
17147;SDS011;8689;47.364;8.796;2023-06-14T10:20:51;4.43;;;3.42;;
17147;SDS011;8689;47.364;8.796;2023-06-14T10:23:27;5.32;;;3.63;;
17147;SDS011;8689;47.364;8.796;2023-06-14T10:26:07;4.25;;;3.53;;
17147;SDS011;8689;47.364;8.796;2023-06-14T10:28:37;3.60;;;3.05;;
17147;SDS011;8689;47.364;8.796;2023-06-14T10:31:05;7.78;;;3.50;;
17147;SDS011;8689;47.364;8.796;2023-06-14T10:33:48;4.07;;;3.47;;
17147;SDS011;8689;47.364;8.796;2023-06-14T10:36:30;8.23;;;3.58;;
17147;SDS011;8689;47.364;8.796;2023-06-14T10:47:39;5.60;;;3.70;;
17147;SDS011;8689;47.364;8.796;2023-06-14T10:50:08;6.93;;;3.50;;
17147;SDS011;8689;47.364;8.796;2023-06-14T10:52:40;4.50;;;2.92;;
17147;SDS011;8689;47.364;8.796;2023-06-14T10:55:09;15.07;;;4.47;;
17147;SDS011;8689;47.364;8.796;2023-06-14T10:57:38;5.63;;;3.67;;
17147;SDS011;8689;47.364;8.796;2023-06-14T11:00:09;5.63;;;3.30;;
17147;SDS011;8689;47.364;8.796;2023-06-14T11:02:51;8.05;;;3.45;;
17147;SDS011;8689;47.364;8.796;2023-06-14T11:05:48;5.85;;;3.08;;
17147;SDS011;8689;47.364;8.796;2023-06-14T11:08:40;4.72;;;2.83;;
17147;SDS011;8689;47.364;8.796;2023-06-14T11:11:40;10.55;;;3.67;;
17147;SDS011;8689;47.364;8.796;2023-06-14T11:14:20;4.63;;;3.40;;
17147;SDS011;8689;47.364;8.796;2023-06-14T11:16:52;4.15;;;3.65;;
17147;SDS011;8689;47.364;8.796;2023-06-14T11:19:21;4.68;;;3.25;;
17147;SDS011;8689;47.364;8.796;2023-06-14T11:21:49;5.20;;;3.22;;
17147;SDS011;8689;47.364;8.796;2023-06-14T11:24:17;3.75;;;3.03;;
17147;SDS011;8689;47.364;8.796;2023-06-14T11:26:46;5.00;;;2.90;;
17147;SDS011;8689;47.364;8.796;2023-06-14T11:29:15;4.82;;;3.38;;
17147;SDS011;8689;47.364;8.796;2023-06-14T11:31:43;4.25;;;2.72;;
17147;SDS011;8689;47.364;8.796;2023-06-14T11:34:21;4.40;;;3.13;;
17147;SDS011;8689;47.364;8.796;2023-06-14T11:37:35;3.42;;;3.10;;
17147;SDS011;8689;47.364;8.796;2023-06-14T11:40:07;3.65;;;3.10;;
17147;SDS011;8689;47.364;8.796;2023-06-14T11:42:35;3.97;;;3.45;;
17147;SDS011;8689;47.364;8.796;2023-06-14T11:45:03;5.35;;;3.00;;
17147;SDS011;8689;47.364;8.796;2023-06-14T11:47:31;5.22;;;2.70;;
17147;SDS011;8689;47.364;8.796;2023-06-14T11:50:00;4.93;;;3.30;;
17147;SDS011;8689;47.364;8.796;2023-06-14T11:52:28;4.65;;;3.17;;
17147;SDS011;8689;47.364;8.796;2023-06-14T11:54:55;7.07;;;3.47;;
17147;SDS011;8689;47.364;8.796;2023-06-14T11:57:23;4.97;;;3.42;;
17147;SDS011;8689;47.364;8.796;2023-06-14T11:59:51;5.07;;;3.63;;
17147;SDS011;8689;47.364;8.796;2023-06-14T12:02:22;5.93;;;3.47;;
17147;SDS011;8689;47.364;8.796;2023-06-14T12:04:50;5.25;;;3.25;;
17147;SDS011;8689;47.364;8.796;2023-06-14T12:07:48;4.63;;;2.72;;
17147;SDS011;8689;47.364;8.796;2023-06-14T12:10:18;5.03;;;3.10;;
17147;SDS011;8689;47.364;8.796;2023-06-14T12:13:22;7.93;;;3.28;;
17147;SDS011;8689;47.364;8.796;2023-06-14T12:16:12;8.85;;;3.50;;
17147;SDS011;8689;47.364;8.796;2023-06-14T12:18:39;4.68;;;2.75;;
17147;SDS011;8689;47.364;8.796;2023-06-14T12:21:09;6.13;;;3.15;;
17147;SDS011;8689;47.364;8.796;2023-06-14T12:23:43;3.65;;;2.95;;
17147;SDS011;8689;47.364;8.796;2023-06-14T12:26:14;4.88;;;2.90;;
17147;SDS011;8689;47.364;8.796;2023-06-14T12:28:42;6.00;;;3.83;;
17147;SDS011;8689;47.364;8.796;2023-06-14T12:31:14;4.38;;;2.83;;
17147;SDS011;8689;47.364;8.796;2023-06-14T12:33:55;2.78;;;2.42;;
17147;SDS011;8689;47.364;8.796;2023-06-14T12:39:43;4.88;;;3.17;;
17147;SDS011;8689;47.364;8.796;2023-06-14T12:42:10;6.07;;;2.97;;
17147;SDS011;8689;47.364;8.796;2023-06-14T12:44:39;9.30;;;3.33;;
17147;SDS011;8689;47.364;8.796;2023-06-14T12:47:08;3.83;;;2.60;;
17147;SDS011;8689;47.364;8.796;2023-06-14T12:49:35;3.65;;;3.03;;
17147;SDS011;8689;47.364;8.796;2023-06-14T12:52:02;3.85;;;2.63;;
17147;SDS011;8689;47.364;8.796;2023-06-14T12:54:30;3.47;;;2.97;;
17147;SDS011;8689;47.364;8.796;2023-06-14T12:56:59;4.32;;;2.70;;
17147;SDS011;8689;47.364;8.796;2023-06-14T12:59:26;3.17;;;2.80;;
17147;SDS011;8689;47.364;8.796;2023-06-14T13:01:58;8.32;;;2.88;;
17147;SDS011;8689;47.364;8.796;2023-06-14T13:04:26;4.22;;;2.90;;
17147;SDS011;8689;47.364;8.796;2023-06-14T13:06:53;5.03;;;3.20;;
17147;SDS011;8689;47.364;8.796;2023-06-14T13:09:21;3.70;;;2.88;;
17147;SDS011;8689;47.364;8.796;2023-06-14T13:11:48;4.53;;;2.90;;
17147;SDS011;8689;47.364;8.796;2023-06-14T13:14:17;4.43;;;3.00;;
17147;SDS011;8689;47.364;8.796;2023-06-14T13:16:44;3.72;;;2.80;;
17147;SDS011;8689;47.364;8.796;2023-06-14T13:19:11;4.10;;;2.95;;
17147;SDS011;8689;47.364;8.796;2023-06-14T13:21:38;6.60;;;2.92;;
17147;SDS011;8689;47.364;8.796;2023-06-14T13:24:06;7.07;;;2.78;;
17147;SDS011;8689;47.364;8.796;2023-06-14T13:26:33;4.57;;;3.03;;
17147;SDS011;8689;47.364;8.796;2023-06-14T13:29:00;2.83;;;2.47;;
17147;SDS011;8689;47.364;8.796;2023-06-14T13:31:30;3.05;;;2.75;;
17147;SDS011;8689;47.364;8.796;2023-06-14T13:33:58;4.95;;;3.10;;
17147;SDS011;8689;47.364;8.796;2023-06-14T13:36:25;4.72;;;3.05;;
17147;SDS011;8689;47.364;8.796;2023-06-14T13:38:53;5.20;;;2.85;;
17147;SDS011;8689;47.364;8.796;2023-06-14T13:41:20;3.35;;;2.55;;
17147;SDS011;8689;47.364;8.796;2023-06-14T13:43:47;3.05;;;2.50;;
17147;SDS011;8689;47.364;8.796;2023-06-14T13:46:15;3.97;;;2.80;;
17147;SDS011;8689;47.364;8.796;2023-06-14T13:48:44;6.78;;;2.72;;
17147;SDS011;8689;47.364;8.796;2023-06-14T13:51:12;3.58;;;3.22;;
17147;SDS011;8689;47.364;8.796;2023-06-14T13:53:40;4.93;;;3.10;;
17147;SDS011;8689;47.364;8.796;2023-06-14T13:56:07;3.00;;;2.70;;
17147;SDS011;8689;47.364;8.796;2023-06-14T13:58:34;6.05;;;3.17;;
17147;SDS011;8689;47.364;8.796;2023-06-14T14:01:01;8.55;;;3.67;;
17147;SDS011;8689;47.364;8.796;2023-06-14T14:03:28;3.00;;;2.70;;
17147;SDS011;8689;47.364;8.796;2023-06-14T14:05:57;5.10;;;2.95;;
17147;SDS011;8689;47.364;8.796;2023-06-14T14:08:24;3.05;;;2.75;;
17147;SDS011;8689;47.364;8.796;2023-06-14T14:10:51;3.67;;;2.35;;
17147;SDS011;8689;47.364;8.796;2023-06-14T14:13:18;5.90;;;3.28;;
17147;SDS011;8689;47.364;8.796;2023-06-14T14:15:46;5.97;;;3.28;;
17147;SDS011;8689;47.364;8.796;2023-06-14T14:18:14;4.07;;;2.78;;
17147;SDS011;8689;47.364;8.796;2023-06-14T14:20:42;4.93;;;2.88;;
17147;SDS011;8689;47.364;8.796;2023-06-14T14:23:11;4.72;;;2.75;;
17147;SDS011;8689;47.364;8.796;2023-06-14T14:25:39;8.32;;;3.13;;
17147;SDS011;8689;47.364;8.796;2023-06-14T14:28:07;5.15;;;2.70;;
17147;SDS011;8689;47.364;8.796;2023-06-14T14:30:34;6.53;;;3.13;;
17147;SDS011;8689;47.364;8.796;2023-06-14T14:33:04;5.15;;;2.65;;
17147;SDS011;8689;47.364;8.796;2023-06-14T14:35:33;4.45;;;2.78;;
17147;SDS011;8689;47.364;8.796;2023-06-14T14:38:01;7.15;;;3.00;;
17147;SDS011;8689;47.364;8.796;2023-06-14T14:40:48;4.35;;;2.45;;
17147;SDS011;8689;47.364;8.796;2023-06-14T14:43:16;3.40;;;3.10;;
17147;SDS011;8689;47.364;8.796;2023-06-14T14:45:43;4.13;;;3.20;;
17147;SDS011;8689;47.364;8.796;2023-06-14T14:48:15;3.67;;;3.05;;
17147;SDS011;8689;47.364;8.796;2023-06-14T14:51:03;4.30;;;2.70;;
17147;SDS011;8689;47.364;8.796;2023-06-14T14:53:33;5.18;;;3.00;;
17147;SDS011;8689;47.364;8.796;2023-06-14T14:56:02;3.95;;;3.00;;
17147;SDS011;8689;47.364;8.796;2023-06-14T14:58:29;3.67;;;2.85;;
17147;SDS011;8689;47.364;8.796;2023-06-14T15:00:56;5.25;;;3.15;;
17147;SDS011;8689;47.364;8.796;2023-06-14T15:03:23;3.58;;;2.63;;
17147;SDS011;8689;47.364;8.796;2023-06-14T15:05:50;5.22;;;3.55;;
17147;SDS011;8689;47.364;8.796;2023-06-14T15:08:17;3.30;;;3.00;;
17147;SDS011;8689;47.364;8.796;2023-06-14T15:10:44;4.47;;;2.80;;
17147;SDS011;8689;47.364;8.796;2023-06-14T15:13:14;3.90;;;3.33;;
17147;SDS011;8689;47.364;8.796;2023-06-14T15:15:42;4.97;;;2.97;;
17147;SDS011;8689;47.364;8.796;2023-06-14T15:18:09;5.68;;;2.78;;
17147;SDS011;8689;47.364;8.796;2023-06-14T15:20:36;4.00;;;2.85;;
17147;SDS011;8689;47.364;8.796;2023-06-14T15:23:03;6.57;;;2.97;;
17147;SDS011;8689;47.364;8.796;2023-06-14T15:25:31;4.13;;;2.85;;
17147;SDS011;8689;47.364;8.796;2023-06-14T15:27:58;6.90;;;2.45;;
17147;SDS011;8689;47.364;8.796;2023-06-14T15:30:28;5.65;;;2.80;;
17147;SDS011;8689;47.364;8.796;2023-06-14T15:32:55;4.25;;;2.72;;
17147;SDS011;8689;47.364;8.796;2023-06-14T15:35:22;2.92;;;2.60;;
17147;SDS011;8689;47.364;8.796;2023-06-14T15:37:49;4.70;;;2.78;;
17147;SDS011;8689;47.364;8.796;2023-06-14T15:40:17;8.68;;;2.92;;
17147;SDS011;8689;47.364;8.796;2023-06-14T15:42:44;4.97;;;3.03;;
17147;SDS011;8689;47.364;8.796;2023-06-14T15:45:11;5.60;;;2.90;;
17147;SDS011;8689;47.364;8.796;2023-06-14T15:47:40;5.28;;;2.95;;
17147;SDS011;8689;47.364;8.796;2023-06-14T15:50:07;3.40;;;3.05;;
17147;SDS011;8689;47.364;8.796;2023-06-14T15:52:35;4.32;;;2.92;;
17147;SDS011;8689;47.364;8.796;2023-06-14T15:55:04;3.75;;;2.80;;
17147;SDS011;8689;47.364;8.796;2023-06-14T15:57:32;6.78;;;2.60;;
17147;SDS011;8689;47.364;8.796;2023-06-14T15:59:59;9.52;;;2.47;;
17147;SDS011;8689;47.364;8.796;2023-06-14T16:02:25;4.78;;;2.67;;
17147;SDS011;8689;47.364;8.796;2023-06-14T16:04:54;3.22;;;2.53;;
17147;SDS011;8689;47.364;8.796;2023-06-14T16:07:21;3.20;;;2.90;;
17147;SDS011;8689;47.364;8.796;2023-06-14T16:09:48;4.72;;;2.80;;
17147;SDS011;8689;47.364;8.796;2023-06-14T16:12:15;2.95;;;2.63;;
17147;SDS011;8689;47.364;8.796;2023-06-14T16:14:42;3.00;;;2.42;;
17147;SDS011;8689;47.364;8.796;2023-06-14T16:17:09;6.10;;;3.13;;
17147;SDS011;8689;47.364;8.796;2023-06-14T16:19:36;11.40;;;3.33;;
17147;SDS011;8689;47.364;8.796;2023-06-14T16:22:05;10.27;;;3.35;;
17147;SDS011;8689;47.364;8.796;2023-06-14T16:24:32;9.35;;;3.70;;
17147;SDS011;8689;47.364;8.796;2023-06-14T16:26:59;4.90;;;3.08;;
17147;SDS011;8689;47.364;8.796;2023-06-14T16:29:27;4.22;;;2.80;;
17147;SDS011;8689;47.364;8.796;2023-06-14T16:31:54;6.50;;;3.78;;
17147;SDS011;8689;47.364;8.796;2023-06-14T16:34:21;5.03;;;3.45;;
17147;SDS011;8689;47.364;8.796;2023-06-14T16:36:48;4.07;;;3.17;;
17147;SDS011;8689;47.364;8.796;2023-06-14T16:39:17;4.32;;;3.22;;
17147;SDS011;8689;47.364;8.796;2023-06-14T16:41:44;4.10;;;3.40;;
17147;SDS011;8689;47.364;8.796;2023-06-14T16:44:11;8.30;;;4.20;;
17147;SDS011;8689;47.364;8.796;2023-06-14T16:46:39;8.23;;;3.05;;
17147;SDS011;8689;47.364;8.796;2023-06-14T16:49:06;4.75;;;3.40;;
17147;SDS011;8689;47.364;8.796;2023-06-14T16:51:33;5.18;;;3.00;;